createdAt,value
2022-12-19T00:01:34.950Z,1.00
2022-12-19T00:04:02.511Z,1.10
2022-12-19T00:06:34.619Z,1.10
2022-12-19T00:09:01.425Z,1.40
2022-12-19T00:11:28.284Z,1.20
2022-12-19T00:13:54.917Z,1.30
2022-12-19T00:16:22.416Z,1.10
2022-12-19T00:18:49.530Z,1.30
2022-12-19T00:21:16.834Z,1.30
2022-12-19T00:23:43.536Z,0.90
2022-12-19T00:26:10.953Z,0.90
2022-12-19T00:28:37.676Z,1.10
2022-12-19T00:31:04.528Z,1.10
2022-12-19T00:33:31.469Z,1.10
2022-12-19T00:36:00.312Z,1.20
2022-12-19T00:38:27.291Z,1.30
2022-12-19T00:40:54.019Z,1.20
2022-12-19T00:43:20.859Z,1.20
2022-12-19T00:45:47.607Z,1.40
2022-12-19T00:48:14.398Z,1.20
2022-12-19T00:50:43.510Z,1.10
2022-12-19T00:53:10.130Z,1.00
2022-12-19T00:55:37.960Z,1.10
2022-12-19T00:58:04.645Z,1.20
2022-12-19T01:00:31.619Z,1.00
2022-12-19T01:02:58.835Z,1.00
2022-12-19T01:05:25.676Z,1.10
2022-12-19T01:07:52.402Z,1.20
2022-12-19T01:10:19.146Z,1.00
2022-12-19T01:12:45.916Z,1.00
2022-12-19T01:15:13.424Z,1.10
2022-12-19T01:17:44.237Z,1.30
2022-12-19T01:20:12.035Z,1.30
2022-12-19T01:22:38.733Z,1.40
2022-12-19T01:25:05.941Z,1.60
2022-12-19T01:27:32.629Z,1.50
2022-12-19T01:29:59.291Z,1.40
2022-12-19T01:32:25.957Z,1.40
2022-12-19T01:34:52.611Z,1.60
2022-12-19T01:37:19.577Z,1.50
2022-12-19T01:39:46.424Z,1.40
2022-12-19T01:42:23.615Z,1.40
2022-12-19T01:45:13.397Z,1.40
2022-12-19T01:47:52.522Z,1.40
2022-12-19T01:50:42.157Z,1.50
2022-12-19T01:53:16.760Z,1.60
2022-12-19T01:55:43.461Z,1.70
2022-12-19T01:58:10.612Z,1.70
2022-12-19T02:00:37.335Z,1.70
2022-12-19T02:03:06.696Z,1.70
2022-12-19T02:05:35.667Z,1.60
2022-12-19T02:08:02.389Z,1.70
2022-12-19T02:10:29.049Z,1.60
2022-12-19T02:12:55.743Z,1.60
2022-12-19T02:15:22.504Z,1.50
2022-12-19T02:17:51.924Z,1.30
2022-12-19T02:20:20.926Z,1.30
2022-12-19T02:23:02.958Z,1.50
2022-12-19T02:25:29.651Z,1.60
2022-12-19T02:27:56.360Z,1.60
2022-12-19T02:30:41.818Z,1.60
2022-12-19T02:33:08.776Z,1.60
2022-12-19T02:35:38.657Z,1.80
2022-12-19T02:38:08.437Z,1.50
2022-12-19T02:40:51.837Z,1.60
2022-12-19T02:43:22.404Z,1.60
2022-12-19T02:45:49.188Z,1.60
2022-12-19T02:48:19.265Z,1.70
2022-12-19T02:50:47.364Z,1.60
2022-12-19T02:53:16.836Z,1.70
2022-12-19T02:55:46.693Z,1.90
2022-12-19T02:58:33.827Z,1.80
2022-12-19T03:01:10.499Z,1.60
2022-12-19T03:03:39.958Z,1.20
2022-12-19T03:06:06.598Z,1.30
2022-12-19T03:08:59.547Z,1.40
2022-12-19T03:11:26.584Z,1.60
2022-12-19T03:14:00.268Z,1.50
2022-12-19T03:16:26.945Z,1.60
2022-12-19T03:18:53.686Z,1.60
2022-12-19T03:21:20.393Z,1.70
2022-12-19T03:23:47.427Z,1.70
2022-12-19T03:26:18.332Z,1.70
2022-12-19T03:28:49.200Z,1.60
2022-12-19T03:31:17.025Z,1.50
2022-12-19T03:33:43.779Z,1.60
2022-12-19T03:36:11.993Z,1.10
2022-12-19T03:38:38.653Z,1.40
2022-12-19T03:41:05.369Z,1.70
2022-12-19T03:43:32.301Z,1.70
2022-12-19T03:46:04.305Z,1.60
2022-12-19T03:48:33.491Z,1.40
2022-12-19T03:51:36.081Z,1.20
2022-12-19T03:54:19.287Z,1.60
2022-12-19T03:56:54.993Z,1.50
2022-12-19T03:59:41.207Z,1.30
2022-12-19T04:02:08.497Z,1.50
2022-12-19T04:04:36.266Z,1.40
2022-12-19T04:07:03.089Z,1.20
2022-12-19T04:09:29.839Z,1.20
2022-12-19T04:12:03.546Z,1.30
2022-12-19T04:14:36.737Z,1.50
2022-12-19T04:17:12.251Z,1.40
2022-12-19T04:19:49.615Z,1.30
2022-12-19T04:22:17.840Z,1.60
2022-12-19T04:24:44.532Z,1.70
2022-12-19T04:27:11.237Z,1.70
2022-12-19T04:29:37.987Z,1.80
2022-12-19T04:32:05.123Z,1.80
2022-12-19T04:34:31.981Z,1.70
2022-12-19T04:36:58.752Z,1.80
2022-12-19T04:39:25.438Z,1.70
2022-12-19T04:41:52.256Z,1.50
2022-12-19T04:44:19.166Z,1.60
2022-12-19T04:46:46.118Z,1.50
2022-12-19T04:49:12.849Z,1.50
2022-12-19T04:51:39.552Z,1.70
2022-12-19T04:54:06.238Z,1.70
2022-12-19T04:56:32.967Z,1.40
2022-12-19T04:58:59.819Z,1.20
2022-12-19T05:01:26.679Z,1.20
2022-12-19T05:03:56.631Z,1.10
2022-12-19T05:06:25.394Z,0.90
2022-12-19T05:08:52.117Z,1.20
2022-12-19T05:11:19.893Z,1.20
2022-12-19T05:13:46.988Z,1.30
2022-12-19T05:16:15.091Z,1.40
2022-12-19T05:18:41.893Z,1.60
2022-12-19T05:21:08.578Z,1.70
2022-12-19T05:23:35.300Z,1.70
2022-12-19T05:26:02.098Z,1.70
2022-12-19T05:28:28.727Z,1.80
2022-12-19T05:31:04.670Z,1.80
2022-12-19T05:33:31.441Z,1.70
2022-12-19T05:35:58.148Z,1.60
2022-12-19T05:38:25.623Z,1.80
2022-12-19T05:40:52.310Z,1.80
2022-12-19T05:43:18.999Z,1.80
2022-12-19T05:45:45.716Z,1.70
2022-12-19T05:48:13.442Z,1.90
2022-12-19T05:50:40.392Z,1.90
2022-12-19T05:53:07.619Z,1.90
2022-12-19T05:55:34.480Z,2.00
2022-12-19T05:58:01.118Z,2.00
2022-12-19T06:00:27.796Z,1.90
2022-12-19T06:02:54.847Z,1.80
2022-12-19T06:05:21.661Z,1.90
2022-12-19T06:07:48.400Z,1.90
2022-12-19T06:10:15.169Z,1.90
2022-12-19T06:12:41.910Z,1.90
2022-12-19T06:15:08.848Z,1.90
2022-12-19T06:17:35.551Z,1.90
2022-12-19T06:20:02.241Z,1.90
2022-12-19T06:22:28.886Z,1.80
2022-12-19T06:24:55.550Z,1.90
2022-12-19T06:27:22.223Z,1.80
2022-12-19T06:29:48.932Z,1.90
2022-12-19T06:32:15.638Z,2.00
2022-12-19T06:37:28.980Z,1.80
2022-12-19T06:39:55.760Z,1.70
2022-12-19T06:42:25.687Z,1.90
2022-12-19T06:44:52.784Z,2.00
2022-12-19T06:47:19.878Z,2.10
2022-12-19T06:49:46.657Z,2.10
2022-12-19T06:52:13.389Z,2.20
2022-12-19T06:54:40.132Z,2.00
2022-12-19T06:57:07.776Z,2.20
2022-12-19T06:59:34.497Z,2.00
2022-12-19T07:02:01.198Z,1.90
2022-12-19T07:04:31.936Z,1.90
2022-12-19T07:06:58.895Z,1.70
2022-12-19T07:09:26.726Z,1.80
2022-12-19T07:11:53.351Z,1.90
2022-12-19T07:14:20.040Z,1.90
2022-12-19T07:16:46.927Z,1.90
2022-12-19T07:19:14.148Z,1.70
2022-12-19T07:21:41.008Z,1.60
2022-12-19T07:24:08.275Z,1.60
2022-12-19T07:26:35.932Z,1.50
2022-12-19T07:29:03.083Z,1.60
2022-12-19T07:31:29.869Z,1.70
2022-12-19T07:33:56.715Z,2.00
2022-12-19T07:36:23.418Z,1.90
2022-12-19T07:38:50.716Z,2.00
2022-12-19T07:41:17.547Z,1.70
2022-12-19T07:43:45.681Z,1.60
2022-12-19T07:46:12.472Z,1.50
2022-12-19T07:48:39.236Z,1.50
2022-12-19T07:51:06.058Z,1.60
2022-12-19T07:53:32.805Z,1.60
2022-12-19T07:55:59.582Z,1.90
2022-12-19T07:58:26.325Z,2.00
2022-12-19T08:00:56.640Z,2.40
2022-12-19T08:03:23.838Z,2.40
2022-12-19T08:05:51.259Z,2.30
2022-12-19T08:08:18.166Z,2.10
2022-12-19T08:10:44.840Z,2.10
2022-12-19T08:13:11.630Z,2.10
2022-12-19T08:15:38.528Z,2.00
2022-12-19T08:18:05.705Z,1.90
2022-12-19T08:20:32.447Z,2.00
2022-12-19T08:22:59.228Z,1.90
2022-12-19T08:25:25.925Z,2.00
2022-12-19T08:27:52.588Z,1.90
2022-12-19T08:30:19.316Z,1.90
2022-12-19T08:32:46.291Z,2.00
2022-12-19T08:35:13.083Z,2.10
2022-12-19T08:37:39.929Z,2.30
2022-12-19T08:40:07.089Z,2.50
2022-12-19T08:42:33.910Z,2.40
2022-12-19T08:45:00.754Z,2.40
2022-12-19T08:47:27.458Z,2.50
2022-12-19T08:49:54.690Z,2.10
2022-12-19T08:52:21.428Z,2.00
2022-12-19T08:54:48.351Z,2.00
2022-12-19T08:57:15.514Z,2.10
2022-12-19T08:59:42.332Z,2.10
2022-12-19T09:02:10.780Z,2.10
2022-12-19T09:05:58.153Z,2.30
2022-12-19T09:07:24.541Z,2.30
2022-12-19T09:09:51.233Z,2.40
2022-12-19T09:12:18.119Z,2.30
2022-12-19T09:14:44.863Z,2.50
2022-12-19T09:17:11.667Z,2.20
2022-12-19T09:19:38.402Z,2.20
2022-12-19T09:22:06.498Z,2.30
2022-12-19T09:24:33.192Z,2.40
2022-12-19T09:26:59.923Z,2.30
2022-12-19T09:29:29.708Z,2.10
2022-12-19T09:31:59.138Z,2.00
2022-12-19T09:34:32.980Z,2.10
2022-12-19T09:37:09.045Z,2.10
2022-12-19T09:39:42.121Z,2.10
2022-12-19T09:42:08.824Z,2.30
2022-12-19T09:44:35.525Z,2.50
2022-12-19T09:47:02.824Z,2.60
2022-12-19T09:49:34.288Z,2.40
2022-12-19T09:52:27.361Z,2.40
2022-12-19T09:55:03.328Z,2.30
2022-12-19T09:57:30.081Z,2.50
2022-12-19T09:59:57.807Z,2.50
2022-12-19T10:02:27.792Z,2.60
2022-12-19T10:05:10.604Z,3.00
2022-12-19T10:08:07.811Z,2.90
2022-12-19T10:12:41.098Z,3.10
2022-12-19T10:13:35.747Z,3.20
2022-12-19T10:16:21.318Z,3.30
2022-12-19T10:18:57.060Z,3.20
2022-12-19T10:22:16.189Z,3.10
2022-12-19T10:24:22.840Z,3.10
2022-12-19T10:27:12.966Z,3.10
2022-12-19T10:29:43.837Z,3.10
2022-12-19T10:32:13.615Z,3.20
2022-12-19T10:34:44.175Z,3.20
2022-12-19T10:37:28.673Z,3.30
2022-12-19T10:40:11.708Z,3.40
2022-12-19T10:42:41.439Z,3.20
2022-12-19T10:45:15.844Z,3.10
2022-12-19T10:47:42.597Z,2.90
2022-12-19T10:50:12.996Z,2.90
2022-12-19T10:52:52.589Z,3.10
2022-12-19T10:55:28.475Z,3.10
2022-12-19T10:57:58.008Z,3.20
2022-12-19T11:00:24.784Z,3.10
2022-12-19T11:02:53.716Z,3.10
2022-12-19T11:05:57.761Z,3.20
2022-12-19T11:08:25.384Z,3.20
2022-12-19T11:13:17.614Z,3.10
2022-12-19T11:19:03.948Z,2.70
2022-12-19T11:23:46.138Z,2.20
2022-12-19T11:29:26.509Z,2.60
2022-12-19T11:29:43.869Z,2.50
2022-12-19T11:30:25.736Z,2.80
2022-12-19T11:30:36.477Z,2.80
2022-12-19T11:33:23.859Z,3.00
2022-12-19T11:35:51.595Z,2.60
2022-12-19T11:38:20.282Z,2.80
2022-12-19T11:40:49.690Z,2.80
2022-12-19T11:43:44.402Z,2.90
2022-12-19T11:46:17.690Z,2.90
2022-12-19T11:48:52.388Z,3.20
2022-12-19T11:51:28.751Z,2.90
2022-12-19T11:54:12.204Z,2.90
2022-12-19T11:56:39.462Z,3.00
2022-12-19T11:59:15.265Z,2.70
2022-12-19T12:02:00.804Z,2.80
2022-12-19T12:04:36.759Z,2.90
2022-12-19T12:07:09.249Z,3.00
2022-12-19T12:11:53.170Z,3.20
2022-12-19T12:19:21.871Z,3.10
2022-12-19T12:31:01.056Z,3.30
2022-12-19T12:31:23.617Z,3.30
2022-12-19T12:31:27.997Z,3.10
2022-12-19T12:31:43.270Z,2.20
2022-12-19T12:32:02.058Z,2.20
2022-12-19T12:32:03.364Z,2.50
2022-12-19T12:35:38.193Z,2.50
2022-12-19T12:39:01.161Z,2.80
2022-12-19T12:42:06.345Z,2.70
2022-12-19T12:44:45.165Z,2.90
2022-12-19T12:47:17.985Z,3.00
2022-12-19T12:49:45.912Z,2.60
2022-12-19T12:52:19.990Z,2.80
2022-12-19T12:54:46.747Z,2.70
2022-12-19T12:57:28.979Z,3.00
2022-12-19T13:00:15.617Z,3.00
2022-12-19T13:02:46.554Z,2.20
2022-12-19T13:05:22.457Z,2.10
2022-12-19T13:07:52.537Z,2.00
2022-12-19T13:10:31.461Z,2.20
2022-12-19T13:13:21.100Z,2.40
2022-12-19T13:15:51.094Z,1.90
2022-12-19T13:18:33.905Z,1.80
2022-12-19T13:21:01.393Z,2.10
2022-12-19T13:23:31.052Z,2.20
2022-12-19T13:25:57.740Z,1.90
2022-12-19T13:28:24.558Z,1.40
2022-12-19T13:31:19.878Z,1.20
2022-12-19T13:33:51.725Z,1.50
2022-12-19T13:39:50.748Z,1.30
2022-12-19T13:39:59.350Z,1.30
2022-12-19T13:42:30.707Z,1.70
2022-12-19T13:44:59.110Z,1.40
2022-12-19T13:47:26.066Z,1.80
2022-12-19T13:49:52.759Z,1.70
2022-12-19T13:52:19.461Z,1.70
2022-12-19T13:54:47.213Z,1.80
2022-12-19T13:57:27.088Z,2.00
2022-12-19T14:00:00.506Z,2.10
2022-12-19T14:02:28.062Z,1.70
2022-12-19T14:04:54.904Z,1.50
2022-12-19T14:07:24.882Z,1.80
2022-12-19T14:11:33.504Z,2.00
2022-12-19T14:13:44.396Z,1.60
2022-12-19T14:15:52.126Z,1.90
2022-12-19T14:18:44.442Z,1.50
2022-12-19T14:22:05.492Z,1.60
2022-12-19T14:24:10.955Z,1.80
2022-12-19T14:28:20.125Z,1.70
2022-12-19T14:29:45.413Z,2.30
2022-12-19T14:33:38.975Z,2.10
2022-12-19T14:36:05.379Z,2.10
2022-12-19T14:38:13.110Z,2.30
2022-12-19T14:40:50.851Z,2.50
2022-12-19T14:43:57.660Z,2.40
2022-12-19T14:53:34.272Z,2.00
2022-12-19T14:54:09.040Z,2.50
2022-12-19T14:54:41.913Z,2.30
2022-12-19T14:56:03.815Z,2.30
2022-12-19T14:58:53.445Z,2.40
2022-12-19T15:01:09.923Z,2.60
2022-12-19T15:03:39.799Z,2.50
2022-12-19T15:06:32.164Z,2.00
2022-12-19T15:10:58.135Z,2.10
2022-12-19T15:14:48.421Z,2.50
2022-12-19T15:14:59.935Z,2.00
2022-12-19T15:17:26.991Z,2.10
2022-12-19T15:19:54.063Z,2.20
2022-12-19T15:22:20.882Z,2.10
2022-12-19T15:24:47.744Z,2.10
2022-12-19T15:27:15.178Z,2.50
2022-12-19T15:29:42.210Z,2.30
2022-12-19T15:32:15.737Z,1.80
2022-12-19T15:34:50.562Z,2.20
2022-12-19T15:37:18.065Z,2.20
2022-12-19T15:39:44.868Z,2.40
2022-12-19T15:42:19.243Z,2.60
2022-12-19T15:44:46.076Z,2.70
2022-12-19T15:47:17.181Z,2.60
2022-12-19T15:49:43.910Z,2.80
2022-12-19T15:52:17.344Z,2.50
2022-12-19T15:54:48.588Z,2.40
2022-12-19T15:57:19.382Z,2.40
2022-12-19T15:59:46.097Z,2.40
2022-12-19T16:02:17.633Z,2.50
2022-12-19T16:04:45.197Z,2.60
2022-12-19T16:07:15.777Z,2.80
2022-12-19T16:09:42.451Z,2.70
2022-12-19T16:12:10.781Z,2.80
2022-12-19T16:14:37.501Z,2.80
2022-12-19T16:17:04.275Z,2.80
2022-12-19T16:19:31.193Z,2.80
2022-12-19T16:21:58.219Z,2.70
2022-12-19T16:24:25.787Z,2.80
2022-12-19T16:26:56.161Z,2.80
2022-12-19T16:29:23.483Z,2.80
2022-12-19T16:31:51.549Z,2.70
2022-12-19T16:34:19.650Z,2.80
2022-12-19T16:36:46.410Z,2.80
2022-12-19T16:39:14.083Z,2.80
2022-12-19T16:41:42.518Z,2.60
2022-12-19T16:44:19.442Z,2.60
2022-12-19T16:46:50.682Z,2.70
2022-12-19T16:49:19.219Z,2.90
2022-12-19T16:51:46.077Z,2.80
2022-12-19T16:54:13.177Z,2.60
2022-12-19T16:56:40.869Z,2.60
2022-12-19T16:59:12.798Z,2.60
2022-12-19T17:01:39.717Z,2.70
2022-12-19T17:04:06.557Z,2.90
2022-12-19T17:06:33.306Z,2.90
2022-12-19T17:08:59.947Z,2.80
2022-12-19T17:11:26.663Z,2.00
2022-12-19T17:13:54.971Z,1.80
2022-12-19T17:16:21.725Z,1.70
2022-12-19T17:18:48.667Z,1.60
2022-12-19T17:21:19.606Z,1.80
2022-12-19T17:23:46.500Z,2.20
2022-12-19T17:26:17.711Z,2.50
2022-12-19T17:28:48.136Z,2.60
2022-12-19T17:31:17.732Z,2.80
2022-12-19T17:33:44.506Z,2.90
2022-12-19T17:36:11.379Z,2.90
2022-12-19T17:38:38.088Z,3.00
2022-12-19T17:41:04.781Z,3.00
2022-12-19T17:43:31.553Z,3.10
2022-12-19T17:45:58.437Z,3.00
2022-12-19T17:48:25.139Z,3.00
2022-12-19T17:50:52.073Z,3.00
2022-12-19T17:53:18.769Z,2.90
2022-12-19T17:55:45.502Z,2.80
2022-12-19T17:58:12.248Z,2.60
2022-12-19T18:00:39.451Z,2.80
2022-12-19T18:03:12.582Z,2.80
2022-12-19T18:05:39.445Z,2.80
2022-12-19T18:08:06.936Z,2.80
2022-12-19T18:10:33.638Z,2.80
2022-12-19T18:13:00.275Z,2.80
2022-12-19T18:15:27.193Z,2.70
2022-12-19T18:17:53.948Z,2.50
2022-12-19T18:20:29.497Z,2.20
2022-12-19T18:22:58.494Z,2.30
2022-12-19T18:25:29.466Z,2.60
2022-12-19T18:27:56.175Z,2.30
2022-12-19T18:30:23.162Z,2.20
2022-12-19T18:32:51.700Z,2.40
2022-12-19T18:35:22.438Z,2.60
2022-12-19T18:37:49.512Z,2.70
2022-12-19T18:40:22.146Z,2.80
2022-12-19T18:42:51.299Z,2.90
2022-12-19T18:45:19.434Z,3.00
2022-12-19T18:47:54.329Z,2.90
2022-12-19T18:50:22.285Z,2.90
2022-12-19T18:52:49.310Z,2.90
2022-12-19T18:55:20.063Z,2.80
2022-12-19T18:57:46.853Z,2.70
2022-12-19T19:00:17.186Z,2.80
2022-12-19T19:02:48.672Z,2.80
2022-12-19T19:05:19.793Z,2.40
2022-12-19T19:07:46.656Z,2.40
2022-12-19T19:10:17.033Z,2.60
2022-12-19T19:12:43.733Z,2.70
2022-12-19T19:15:10.696Z,2.80
2022-12-19T19:17:37.446Z,2.60
2022-12-19T19:20:05.516Z,2.50
2022-12-19T19:22:32.163Z,2.60
2022-12-19T19:24:59.624Z,2.80
2022-12-19T19:27:26.337Z,2.80
2022-12-19T19:29:53.111Z,2.90
2022-12-19T19:32:19.869Z,2.50
2022-12-19T19:34:46.788Z,2.70
2022-12-19T19:37:13.823Z,2.90
2022-12-19T19:39:40.522Z,2.70
2022-12-19T19:42:07.234Z,2.80
2022-12-19T19:44:33.988Z,2.70
2022-12-19T19:47:00.756Z,2.90
2022-12-19T19:49:27.464Z,3.00
2022-12-19T19:52:00.330Z,3.00
2022-12-19T19:54:29.134Z,2.90
2022-12-19T19:56:55.810Z,2.80
2022-12-19T19:59:22.442Z,2.80
2022-12-19T20:01:54.219Z,2.90
2022-12-19T20:04:21.273Z,2.90
2022-12-19T20:06:48.024Z,3.00
2022-12-19T20:09:14.685Z,2.90
2022-12-19T20:11:41.335Z,2.90
2022-12-19T20:14:08.060Z,2.90
2022-12-19T20:16:34.789Z,2.80
2022-12-19T20:19:01.505Z,2.80
2022-12-19T20:21:29.182Z,2.60
2022-12-19T20:23:56.243Z,2.70
2022-12-19T20:26:22.976Z,2.30
2022-12-19T20:28:50.331Z,2.20
2022-12-19T20:31:21.170Z,2.30
2022-12-19T20:33:48.683Z,2.30
2022-12-19T20:36:15.618Z,2.40
2022-12-19T20:38:42.410Z,2.40
2022-12-19T20:41:09.145Z,2.70
2022-12-19T20:43:36.045Z,2.90
2022-12-19T20:46:03.621Z,2.90
2022-12-19T20:48:30.436Z,2.50
2022-12-19T20:50:57.603Z,2.50
2022-12-19T20:53:24.492Z,2.40
2022-12-19T20:55:57.660Z,2.40
2022-12-19T20:58:25.397Z,2.00
2022-12-19T21:00:55.962Z,1.80
2022-12-19T21:03:28.421Z,2.30
2022-12-19T21:05:56.882Z,2.60
2022-12-19T21:08:23.846Z,2.70
2022-12-19T21:10:50.783Z,2.50
2022-12-19T21:13:17.512Z,2.60
2022-12-19T21:15:44.378Z,2.30
2022-12-19T21:18:11.252Z,2.30
2022-12-19T21:20:40.655Z,2.30
2022-12-19T21:23:07.310Z,2.40
2022-12-19T21:25:33.949Z,2.40
2022-12-19T21:28:00.643Z,2.40
2022-12-19T21:30:27.349Z,2.50
2022-12-19T21:32:54.038Z,2.80
2022-12-19T21:35:20.825Z,2.70
2022-12-19T21:37:51.260Z,2.80
2022-12-19T21:40:18.358Z,2.90
2022-12-19T21:42:45.234Z,2.30
2022-12-19T21:45:12.103Z,2.10
2022-12-19T21:47:40.112Z,2.50
2022-12-19T21:50:07.741Z,2.60
2022-12-19T21:52:34.407Z,2.10
2022-12-19T21:55:01.254Z,2.10
2022-12-19T21:57:28.039Z,2.50
2022-12-19T21:59:54.842Z,2.60
2022-12-19T22:02:21.682Z,2.70
2022-12-19T22:04:48.886Z,2.70
2022-12-19T22:07:15.599Z,2.20
2022-12-19T22:09:42.656Z,2.00
2022-12-19T22:12:10.538Z,2.20
2022-12-19T22:14:37.205Z,2.20
2022-12-19T22:17:04.099Z,2.00
2022-12-19T22:19:30.813Z,1.90
2022-12-19T22:21:57.493Z,2.10
2022-12-19T22:24:24.880Z,2.50
2022-12-19T22:26:51.573Z,2.70
2022-12-19T22:29:18.283Z,2.80
2022-12-19T22:31:45.785Z,2.90
2022-12-19T22:34:13.986Z,2.90
2022-12-19T22:36:41.004Z,3.00
2022-12-19T22:39:08.799Z,3.00
2022-12-19T22:41:35.755Z,3.00
2022-12-19T22:44:03.005Z,2.90
2022-12-19T22:46:30.801Z,2.90
2022-12-19T22:48:58.177Z,2.90
2022-12-19T22:51:24.924Z,3.00
2022-12-19T22:53:51.617Z,2.90
2022-12-19T22:56:18.995Z,2.90
2022-12-19T22:58:46.966Z,3.10
2022-12-19T23:01:14.506Z,2.90
2022-12-19T23:03:41.777Z,2.50
2022-12-19T23:06:08.643Z,2.70
2022-12-19T23:08:35.614Z,2.80
2022-12-19T23:11:02.317Z,2.90
2022-12-19T23:13:29.009Z,3.00
2022-12-19T23:15:56.205Z,2.80
2022-12-19T23:18:22.999Z,2.90
2022-12-19T23:20:49.690Z,3.00
2022-12-19T23:23:16.363Z,2.90
2022-12-19T23:25:43.091Z,3.10
2022-12-19T23:28:09.785Z,3.00
2022-12-19T23:30:36.958Z,3.00
2022-12-19T23:33:04.177Z,3.00
2022-12-19T23:35:31.863Z,2.90
2022-12-19T23:37:58.509Z,3.00
2022-12-19T23:40:25.164Z,2.80
2022-12-19T23:42:51.844Z,3.00
2022-12-19T23:45:18.627Z,2.90
2022-12-19T23:47:46.605Z,2.90
2022-12-19T23:50:13.277Z,2.90
2022-12-19T23:52:40.038Z,2.70
2022-12-19T23:55:07.130Z,2.80
2022-12-19T23:57:33.865Z,2.80
